createdAt,value
2023-05-14T00:01:44.465Z,7.66
2023-05-14T00:04:23.799Z,7.69
2023-05-14T00:07:03.141Z,8.18
2023-05-14T00:09:42.432Z,8.27
2023-05-14T00:12:27.554Z,7.92
2023-05-14T00:15:06.928Z,8.06
2023-05-14T00:17:46.315Z,8.02
2023-05-14T00:20:25.951Z,7.76
2023-05-14T00:23:05.378Z,7.24
2023-05-14T00:25:44.721Z,7.14
2023-05-14T00:28:29.530Z,7.35
2023-05-14T00:31:08.900Z,6.85
2023-05-14T00:33:48.249Z,6.97
2023-05-14T00:36:27.539Z,7.06
2023-05-14T00:39:06.820Z,7.06
2023-05-14T00:41:46.086Z,7.48
2023-05-14T00:44:30.455Z,7.07
2023-05-14T00:47:09.813Z,7.16
2023-05-14T00:49:50.379Z,7.03
2023-05-14T00:52:29.817Z,7.43
2023-05-14T00:55:13.166Z,7.46
2023-05-14T00:57:52.585Z,7.66
2023-05-14T01:00:36.966Z,7.40
2023-05-14T01:03:17.078Z,7.21
2023-05-14T01:06:06.024Z,7.36
2023-05-14T01:08:58.247Z,7.63
2023-05-14T01:11:43.760Z,7.17
2023-05-14T01:14:29.494Z,7.38
2023-05-14T01:17:21.199Z,7.71
2023-05-14T01:20:03.232Z,7.25
2023-05-14T01:22:47.572Z,7.30
2023-05-14T01:25:26.964Z,7.61
2023-05-14T01:28:13.822Z,7.67
2023-05-14T01:31:00.662Z,7.51
2023-05-14T01:33:43.080Z,7.95
2023-05-14T01:36:23.086Z,7.81
2023-05-14T01:39:10.747Z,7.73
2023-05-14T01:41:51.312Z,7.91
2023-05-14T01:44:31.872Z,7.81
2023-05-14T01:47:11.397Z,7.61
2023-05-14T01:49:50.672Z,7.63
2023-05-14T01:52:29.961Z,7.43
2023-05-14T01:55:15.270Z,7.47
2023-05-14T01:57:54.573Z,7.52
2023-05-14T02:00:34.365Z,7.62
2023-05-14T02:03:13.739Z,7.31
2023-05-14T02:05:53.121Z,7.57
2023-05-14T02:08:32.427Z,7.42
2023-05-14T02:11:16.818Z,7.44
2023-05-14T02:13:56.359Z,7.70
2023-05-14T02:16:35.700Z,7.31
2023-05-14T02:19:15.468Z,7.48
2023-05-14T02:21:55.594Z,7.42
2023-05-14T02:24:34.969Z,7.35
2023-05-14T02:27:19.386Z,7.60
2023-05-14T02:30:01.875Z,7.72
2023-05-14T02:32:41.263Z,7.33
2023-05-14T02:35:20.816Z,7.45
2023-05-14T02:38:00.792Z,7.43
2023-05-14T02:40:40.056Z,7.44
2023-05-14T02:43:24.425Z,7.60
2023-05-14T02:46:03.736Z,7.93
2023-05-14T02:48:43.072Z,9.75
2023-05-14T02:51:22.703Z,9.41
2023-05-14T02:54:02.087Z,8.37
2023-05-14T02:56:41.602Z,8.47
2023-05-14T02:59:26.154Z,8.45
2023-05-14T03:02:05.799Z,8.59
2023-05-14T03:04:45.645Z,9.29
2023-05-14T03:07:24.952Z,9.81
2023-05-14T03:10:04.366Z,10.33
2023-05-14T03:12:43.774Z,11.45
2023-05-14T03:15:28.188Z,12.64
2023-05-14T03:18:07.952Z,12.31
2023-05-14T03:20:49.344Z,11.44
2023-05-14T03:23:28.712Z,11.14
2023-05-14T03:26:08.302Z,11.59
2023-05-14T03:28:48.166Z,11.39
2023-05-14T03:31:32.800Z,11.47
2023-05-14T03:34:12.210Z,12.37
2023-05-14T03:36:51.594Z,11.20
2023-05-14T03:39:30.937Z,11.18
2023-05-14T03:42:10.303Z,11.56
2023-05-14T03:44:49.651Z,11.78
2023-05-14T03:47:34.201Z,11.03
2023-05-14T03:50:15.406Z,10.34
2023-05-14T03:52:54.807Z,9.26
2023-05-14T03:55:34.154Z,9.59
2023-05-14T03:58:15.258Z,10.00
2023-05-14T04:00:54.970Z,9.83
2023-05-14T04:03:39.485Z,9.91
2023-05-14T04:06:19.011Z,9.95
2023-05-14T04:08:58.341Z,9.93
2023-05-14T04:11:37.693Z,10.13
2023-05-14T04:14:17.121Z,11.39
2023-05-14T04:16:56.412Z,11.02
2023-05-14T04:19:41.704Z,11.46
2023-05-14T04:22:21.003Z,11.10
2023-05-14T04:25:00.314Z,11.29
2023-05-14T04:27:41.378Z,10.81
2023-05-14T04:30:21.161Z,10.93
2023-05-14T04:33:00.711Z,10.90
2023-05-14T04:35:45.169Z,10.52
2023-05-14T04:38:24.461Z,10.48
2023-05-14T04:41:03.746Z,9.79
2023-05-14T04:43:43.067Z,10.80
2023-05-14T04:46:22.457Z,10.33
2023-05-14T04:49:02.024Z,10.81
2023-05-14T04:51:46.469Z,10.00
2023-05-14T04:54:25.832Z,9.14
2023-05-14T04:57:05.941Z,10.07
2023-05-14T04:59:45.248Z,10.10
2023-05-14T05:02:24.570Z,10.18
2023-05-14T05:05:04.063Z,10.10
2023-05-14T05:07:48.452Z,10.45
2023-05-14T05:10:27.783Z,10.68
2023-05-14T05:13:07.472Z,10.55
2023-05-14T05:15:47.143Z,10.35
2023-05-14T05:18:26.576Z,10.52
2023-05-14T05:21:05.963Z,10.43
2023-05-14T05:23:50.311Z,10.39
2023-05-14T05:26:31.750Z,10.43
2023-05-14T05:29:11.769Z,10.24
2023-05-14T05:31:51.259Z,10.27
2023-05-14T05:34:30.749Z,9.57
2023-05-14T05:37:13.913Z,9.87
2023-05-14T05:39:58.295Z,9.42
2023-05-14T05:42:37.649Z,8.82
2023-05-14T05:45:17.891Z,8.95
2023-05-14T05:47:57.256Z,9.17
2023-05-14T05:50:36.744Z,8.37
2023-05-14T05:53:17.784Z,8.65
2023-05-14T05:56:02.182Z,8.54
2023-05-14T05:58:41.588Z,8.67
2023-05-14T06:01:21.022Z,8.56
2023-05-14T06:04:00.780Z,9.01
2023-05-14T06:06:40.225Z,8.82
2023-05-14T06:09:19.632Z,8.59
2023-05-14T06:12:04.026Z,8.70
2023-05-14T06:14:43.315Z,8.82
2023-05-14T06:17:22.748Z,9.16
2023-05-14T06:20:02.242Z,9.02
2023-05-14T06:22:41.624Z,9.00
2023-05-14T06:25:21.001Z,9.63
2023-05-14T06:28:05.385Z,9.91
2023-05-14T06:30:44.768Z,10.01
2023-05-14T06:33:31.025Z,9.69
2023-05-14T06:36:12.761Z,8.74
2023-05-14T06:38:52.203Z,8.67
2023-05-14T06:41:31.580Z,8.40
2023-05-14T06:44:15.980Z,8.07
2023-05-14T06:46:55.282Z,8.56
2023-05-14T06:49:34.583Z,8.60
2023-05-14T06:52:14.406Z,8.31
2023-05-14T06:54:53.701Z,8.51
2023-05-14T06:57:33.021Z,8.66
2023-05-14T07:00:18.809Z,8.78
2023-05-14T07:02:58.201Z,8.86
2023-05-14T07:05:37.677Z,8.84
2023-05-14T07:08:17.003Z,8.90
2023-05-14T07:10:56.274Z,8.58
2023-05-14T07:13:35.707Z,8.09
2023-05-14T07:16:20.477Z,8.46
2023-05-14T07:18:59.918Z,8.67
2023-05-14T07:21:39.270Z,7.89
2023-05-14T07:24:18.582Z,8.17
2023-05-14T07:26:58.494Z,7.68
2023-05-14T07:29:37.756Z,7.61
2023-05-14T07:32:22.182Z,7.82
2023-05-14T07:35:01.558Z,7.69
2023-05-14T07:37:42.809Z,7.94
2023-05-14T07:40:22.810Z,7.72
2023-05-14T07:43:04.432Z,8.04
2023-05-14T07:45:44.226Z,7.73
2023-05-14T07:48:30.419Z,8.10
2023-05-14T07:51:09.787Z,7.96
2023-05-14T07:53:49.103Z,7.98
2023-05-14T07:56:28.659Z,8.33
2023-05-14T07:59:08.342Z,7.95
2023-05-14T08:01:48.161Z,7.92
2023-05-14T08:04:32.752Z,8.17
2023-05-14T08:07:12.620Z,8.20
2023-05-14T08:09:51.924Z,9.00
2023-05-14T08:12:31.532Z,8.28
2023-05-14T08:15:11.678Z,8.15
2023-05-14T08:17:51.019Z,8.37
2023-05-14T08:20:35.540Z,8.14
2023-05-14T08:23:15.084Z,8.48
2023-05-14T08:25:54.390Z,8.46
2023-05-14T08:28:33.671Z,8.79
2023-05-14T08:31:15.964Z,8.95
2023-05-14T08:33:55.399Z,8.72
2023-05-14T08:36:39.886Z,8.44
2023-05-14T08:39:19.237Z,8.87
2023-05-14T08:41:59.388Z,9.03
2023-05-14T08:44:46.315Z,9.19
2023-05-14T08:47:29.626Z,8.33
2023-05-14T08:50:11.439Z,8.62
2023-05-14T08:52:57.465Z,7.95
2023-05-14T08:55:38.637Z,8.07
2023-05-14T08:58:18.421Z,8.16
2023-05-14T09:00:57.827Z,8.03
2023-05-14T09:03:38.539Z,7.94
2023-05-14T09:06:20.623Z,8.09
2023-05-14T09:09:05.129Z,8.10
2023-05-14T09:11:48.702Z,7.61
2023-05-14T09:14:29.675Z,8.45
2023-05-14T09:17:09.098Z,8.25
2023-05-14T09:19:50.351Z,8.05
2023-05-14T09:22:30.044Z,8.02
2023-05-14T09:25:16.908Z,7.87
2023-05-14T09:27:58.773Z,7.67
2023-05-14T09:30:38.349Z,7.78
2023-05-14T09:33:19.191Z,7.63
2023-05-14T09:35:59.104Z,7.85
2023-05-14T09:38:40.254Z,8.44
2023-05-14T09:41:24.700Z,8.34
2023-05-14T09:44:06.676Z,8.06
2023-05-14T09:46:46.188Z,7.69
2023-05-14T09:49:26.183Z,8.16
2023-05-14T09:52:06.112Z,8.31
2023-05-14T09:54:47.062Z,8.06
2023-05-14T09:57:31.530Z,8.13
2023-05-14T10:00:12.973Z,7.80
2023-05-14T10:02:55.088Z,7.77
2023-05-14T10:05:36.061Z,7.79
2023-05-14T10:08:20.819Z,7.88
2023-05-14T10:11:02.538Z,7.73
2023-05-14T10:13:53.898Z,8.04
2023-05-14T10:16:36.331Z,8.68
2023-05-14T10:19:18.510Z,8.55
2023-05-14T10:22:09.627Z,8.36
2023-05-14T10:24:51.551Z,8.29
2023-05-14T10:27:31.555Z,8.33
2023-05-14T10:30:19.431Z,7.77
2023-05-14T10:33:14.583Z,8.42
2023-05-14T10:36:04.654Z,8.86
2023-05-14T10:38:45.710Z,8.69
2023-05-14T10:41:25.173Z,7.60
2023-05-14T10:44:05.097Z,7.38
2023-05-14T10:46:49.982Z,7.32
2023-05-14T10:49:43.003Z,7.28
2023-05-14T10:52:25.679Z,7.07
2023-05-14T10:55:08.903Z,7.37
2023-05-14T10:57:50.745Z,7.36
2023-05-14T11:00:35.305Z,7.44
2023-05-14T11:03:21.310Z,7.62
2023-05-14T11:06:03.182Z,7.60
2023-05-14T11:08:42.982Z,7.49
2023-05-14T11:11:23.051Z,7.35
2023-05-14T11:14:03.607Z,7.76
2023-05-14T11:16:43.152Z,7.55
2023-05-14T11:19:29.214Z,7.76
2023-05-14T11:22:09.273Z,7.37
2023-05-14T11:24:48.990Z,6.84
2023-05-14T11:27:29.637Z,7.47
2023-05-14T11:30:10.335Z,7.32
2023-05-14T11:32:53.764Z,7.29
2023-05-14T11:35:38.591Z,7.24
2023-05-14T11:38:21.728Z,7.18
2023-05-14T11:41:02.106Z,7.32
2023-05-14T11:43:46.619Z,7.22
2023-05-14T11:46:27.379Z,7.43
2023-05-14T11:49:08.466Z,7.10
2023-05-14T11:51:52.829Z,6.96
2023-05-14T11:54:33.891Z,6.89
2023-05-14T11:57:17.878Z,7.16
2023-05-14T12:00:05.899Z,6.98
2023-05-14T12:02:45.517Z,7.22
2023-05-14T12:05:25.348Z,6.92
2023-05-14T12:08:09.784Z,7.05
2023-05-14T12:10:49.541Z,6.82
2023-05-14T12:13:29.294Z,6.43
2023-05-14T12:16:10.099Z,6.99
2023-05-14T12:18:50.837Z,6.51
2023-05-14T12:21:32.382Z,6.36
2023-05-14T12:24:18.191Z,6.31
2023-05-14T12:27:00.520Z,6.50
2023-05-14T12:29:44.275Z,6.17
2023-05-14T12:32:23.658Z,6.79
2023-05-14T12:35:03.020Z,6.75
2023-05-14T12:37:43.816Z,6.50
2023-05-14T12:40:28.314Z,6.09
2023-05-14T12:43:07.786Z,6.10
2023-05-14T12:45:47.115Z,6.18
2023-05-14T12:48:26.519Z,6.11
2023-05-14T12:51:05.880Z,5.79
2023-05-14T12:53:45.251Z,5.66
2023-05-14T12:56:29.766Z,5.35
2023-05-14T12:59:10.638Z,6.26
2023-05-14T13:01:50.010Z,5.17
2023-05-14T13:04:29.480Z,5.40
2023-05-14T13:07:10.052Z,6.53
2023-05-14T13:09:49.448Z,5.13
2023-05-14T13:12:33.860Z,5.36
2023-05-14T13:15:14.355Z,5.45
2023-05-14T13:17:53.673Z,5.32
2023-05-14T13:20:33.628Z,5.35
2023-05-14T13:23:13.082Z,5.13
2023-05-14T13:25:52.381Z,5.75
2023-05-14T13:28:36.861Z,5.59
2023-05-14T13:31:18.157Z,5.14
2023-05-14T13:33:59.227Z,5.02
2023-05-14T13:36:40.818Z,5.06
2023-05-14T13:39:23.804Z,5.07
2023-05-14T13:42:03.088Z,5.04
2023-05-14T13:44:47.475Z,4.70
2023-05-14T13:47:26.899Z,5.18
2023-05-14T13:50:06.384Z,7.07
2023-05-14T13:52:45.727Z,6.46
2023-05-14T13:55:25.273Z,4.92
2023-05-14T13:58:05.573Z,4.92
2023-05-14T14:00:50.051Z,4.70
2023-05-14T14:03:29.401Z,4.48
2023-05-14T14:06:08.658Z,4.75
2023-05-14T14:08:47.954Z,4.78
2023-05-14T14:11:27.359Z,5.03
2023-05-14T14:14:06.785Z,4.88
2023-05-14T14:16:51.522Z,4.60
2023-05-14T14:19:31.282Z,4.51
2023-05-14T14:22:10.733Z,4.60
2023-05-14T14:24:50.046Z,4.42
2023-05-14T14:27:29.511Z,4.53
2023-05-14T14:30:08.808Z,4.63
2023-05-14T14:32:54.105Z,4.86
2023-05-14T14:35:34.614Z,4.95
2023-05-14T14:38:13.964Z,4.99
2023-05-14T14:40:53.566Z,5.30
2023-05-14T14:43:32.954Z,4.82
2023-05-14T14:46:12.622Z,4.74
2023-05-14T14:48:57.070Z,4.57
2023-05-14T14:51:36.575Z,4.89
2023-05-14T14:54:15.919Z,4.47
2023-05-14T14:56:55.577Z,4.65
2023-05-14T14:59:34.848Z,4.58
2023-05-14T15:02:16.673Z,4.15
2023-05-14T15:05:01.209Z,4.06
2023-05-14T15:07:40.589Z,3.81
2023-05-14T15:10:19.897Z,3.88
2023-05-14T15:12:59.250Z,3.93
2023-05-14T15:15:39.780Z,4.11
2023-05-14T15:18:19.086Z,3.86
2023-05-14T15:21:03.484Z,3.90
2023-05-14T15:23:42.835Z,3.83
2023-05-14T15:26:22.967Z,3.86
2023-05-14T15:29:02.293Z,3.59
2023-05-14T15:31:42.531Z,3.53
2023-05-14T15:34:21.887Z,3.54
2023-05-14T15:37:06.260Z,3.61
2023-05-14T15:39:45.796Z,3.51
2023-05-14T15:42:25.216Z,3.29
2023-05-14T15:45:04.602Z,3.39
2023-05-14T15:47:45.476Z,3.47
2023-05-14T15:50:25.725Z,3.38
2023-05-14T15:53:10.427Z,3.59
2023-05-14T15:55:53.250Z,3.67
2023-05-14T15:58:32.849Z,3.66
2023-05-14T16:01:12.472Z,3.76
2023-05-14T16:03:52.742Z,4.00
2023-05-14T16:06:33.468Z,3.92
2023-05-14T16:09:17.953Z,3.93
2023-05-14T16:11:57.321Z,3.80
2023-05-14T16:14:36.616Z,3.62
2023-05-14T16:17:16.086Z,3.88
2023-05-14T16:19:56.776Z,3.95
2023-05-14T16:22:37.254Z,3.85
2023-05-14T16:25:21.819Z,3.46
2023-05-14T16:28:01.701Z,3.90
2023-05-14T16:30:41.155Z,4.06
2023-05-14T16:33:20.531Z,4.01
2023-05-14T16:35:59.897Z,3.86
2023-05-14T16:38:48.196Z,3.82
2023-05-14T16:41:41.494Z,4.00
2023-05-14T16:44:20.789Z,3.77
2023-05-14T16:47:00.166Z,3.93
2023-05-14T16:49:39.431Z,4.05
2023-05-14T16:52:18.732Z,3.89
2023-05-14T16:54:58.132Z,3.99
2023-05-14T16:57:42.679Z,4.03
2023-05-14T17:00:22.780Z,3.95
2023-05-14T17:03:03.731Z,3.88
2023-05-14T17:05:43.297Z,4.06
2023-05-14T17:08:22.676Z,4.18
2023-05-14T17:11:02.282Z,4.33
2023-05-14T17:13:46.635Z,4.36
2023-05-14T17:16:26.495Z,4.68
2023-05-14T17:19:06.140Z,4.84
2023-05-14T17:21:45.448Z,4.41
2023-05-14T17:24:24.749Z,4.40
2023-05-14T17:27:04.156Z,4.37
2023-05-14T17:29:50.472Z,4.30
2023-05-14T17:32:30.778Z,4.17
2023-05-14T17:35:10.904Z,4.20
2023-05-14T17:37:50.288Z,4.30
2023-05-14T17:40:29.576Z,4.30
2023-05-14T17:43:09.683Z,4.37
2023-05-14T17:45:54.902Z,3.63
2023-05-14T17:48:34.496Z,3.63
2023-05-14T17:51:13.929Z,3.31
2023-05-14T17:53:53.227Z,3.09
2023-05-14T17:56:32.690Z,3.60
2023-05-14T17:59:12.113Z,3.76
2023-05-14T18:01:56.517Z,3.74
2023-05-14T18:04:37.729Z,4.13
2023-05-14T18:07:17.568Z,3.67
2023-05-14T18:10:01.541Z,3.99
2023-05-14T18:12:40.850Z,11.54
2023-05-14T18:15:21.477Z,4.44
2023-05-14T18:18:06.322Z,4.33
2023-05-14T18:20:48.793Z,3.62
2023-05-14T18:23:28.403Z,4.69
2023-05-14T18:26:07.946Z,14.56
2023-05-14T18:28:47.927Z,15.05
2023-05-14T18:31:28.624Z,13.20
2023-05-14T18:34:13.036Z,5.71
2023-05-14T18:36:52.310Z,5.28
2023-05-14T18:39:31.614Z,4.81
2023-05-14T18:42:11.956Z,4.34
2023-05-14T18:44:51.250Z,3.98
2023-05-14T18:47:30.631Z,3.75
2023-05-14T18:50:16.884Z,3.72
2023-05-14T18:52:56.156Z,3.95
2023-05-14T18:55:35.616Z,3.56
2023-05-14T18:58:15.722Z,3.69
2023-05-14T19:00:55.124Z,3.64
2023-05-14T19:03:35.071Z,3.28
2023-05-14T19:06:19.641Z,3.21
2023-05-14T19:08:59.813Z,3.60
2023-05-14T19:11:39.300Z,3.51
2023-05-14T19:14:18.628Z,4.13
2023-05-14T19:16:58.604Z,4.54
2023-05-14T19:19:38.586Z,3.91
2023-05-14T19:22:23.159Z,3.70
2023-05-14T19:25:03.226Z,3.58
2023-05-14T19:27:46.062Z,3.87
2023-05-14T19:30:26.863Z,3.80
2023-05-14T19:33:06.214Z,3.61
2023-05-14T19:35:45.604Z,3.59
2023-05-14T19:38:30.817Z,3.93
2023-05-14T19:41:10.109Z,3.55
2023-05-14T19:43:49.415Z,3.51
2023-05-14T19:46:28.938Z,3.68
2023-05-14T19:49:08.299Z,3.68
2023-05-14T19:51:47.618Z,3.49
2023-05-14T19:54:32.106Z,3.30
2023-05-14T19:57:12.332Z,3.30
2023-05-14T19:59:51.626Z,3.50
2023-05-14T20:02:30.962Z,3.66
2023-05-14T20:05:10.281Z,3.47
2023-05-14T20:07:50.112Z,3.79
2023-05-14T20:10:34.643Z,3.77
2023-05-14T20:13:14.155Z,3.58
2023-05-14T20:15:53.469Z,3.85
2023-05-14T20:18:33.188Z,4.05
2023-05-14T20:21:12.834Z,3.75
2023-05-14T20:23:52.103Z,3.63
2023-05-14T20:26:36.954Z,3.86
2023-05-14T20:29:16.930Z,3.77
2023-05-14T20:31:56.264Z,3.84
2023-05-14T20:34:37.098Z,4.05
2023-05-14T20:37:16.435Z,4.13
2023-05-14T20:39:55.997Z,4.46
2023-05-14T20:42:40.378Z,4.52
2023-05-14T20:45:21.365Z,4.88
2023-05-14T20:48:00.741Z,4.08
2023-05-14T20:50:40.204Z,4.29
2023-05-14T20:53:19.570Z,3.81
2023-05-14T20:56:00.115Z,4.20
2023-05-14T20:58:44.493Z,3.95
2023-05-14T21:01:23.837Z,4.19
2023-05-14T21:04:03.299Z,4.28
2023-05-14T21:06:42.848Z,4.37
2023-05-14T21:09:22.517Z,4.27
2023-05-14T21:12:01.987Z,4.46
2023-05-14T21:14:46.370Z,4.62
2023-05-14T21:17:25.887Z,4.72
2023-05-14T21:20:05.285Z,4.78
2023-05-14T21:22:44.645Z,4.88
2023-05-14T21:25:24.145Z,4.95
2023-05-14T21:28:03.798Z,4.56
2023-05-14T21:30:48.205Z,4.48
2023-05-14T21:33:27.469Z,4.69
2023-05-14T21:36:06.878Z,4.76
2023-05-14T21:38:46.528Z,4.66
2023-05-14T21:41:25.825Z,4.97
2023-05-14T21:44:05.093Z,5.16
2023-05-14T21:46:49.576Z,4.65
2023-05-14T21:49:28.963Z,4.67
2023-05-14T21:52:08.360Z,4.81
2023-05-14T21:54:47.674Z,4.63
2023-05-14T21:57:28.614Z,4.82
2023-05-14T22:00:11.533Z,4.63
2023-05-14T22:02:56.499Z,4.77
2023-05-14T22:05:36.416Z,4.76
2023-05-14T22:08:15.745Z,4.91
2023-05-14T22:10:55.112Z,4.55
2023-05-14T22:13:36.244Z,4.90
2023-05-14T22:16:15.989Z,4.81
2023-05-14T22:19:00.438Z,5.16
2023-05-14T22:21:39.810Z,5.29
2023-05-14T22:24:19.127Z,4.97
2023-05-14T22:26:58.463Z,4.99
2023-05-14T22:29:38.480Z,4.87
2023-05-14T22:32:17.874Z,5.15
2023-05-14T22:35:02.988Z,4.86
2023-05-14T22:37:42.433Z,4.98
2023-05-14T22:40:21.768Z,4.78
2023-05-14T22:43:01.144Z,4.94
2023-05-14T22:45:40.661Z,4.80
2023-05-14T22:48:19.995Z,4.70
2023-05-14T22:51:04.355Z,4.89
2023-05-14T22:53:43.726Z,4.63
2023-05-14T22:56:23.371Z,5.02
2023-05-14T22:59:02.776Z,4.90
2023-05-14T23:01:42.121Z,4.93
2023-05-14T23:04:21.817Z,4.91
2023-05-14T23:07:06.278Z,4.87
2023-05-14T23:09:45.836Z,5.05
2023-05-14T23:12:25.157Z,5.06
2023-05-14T23:15:05.198Z,4.95
2023-05-14T23:17:45.112Z,5.15
2023-05-14T23:20:24.659Z,5.06
2023-05-14T23:23:09.043Z,4.84
2023-05-14T23:25:50.031Z,5.20
2023-05-14T23:28:29.415Z,5.07
2023-05-14T23:31:08.709Z,4.75
2023-05-14T23:33:47.989Z,4.87
2023-05-14T23:36:27.314Z,4.65
2023-05-14T23:39:12.076Z,4.84
2023-05-14T23:41:51.388Z,4.84
2023-05-14T23:44:30.665Z,5.29
2023-05-14T23:47:10.538Z,5.16
2023-05-14T23:49:49.921Z,4.80
2023-05-14T23:52:29.238Z,4.93
2023-05-14T23:55:14.517Z,4.93
2023-05-14T23:57:54.303Z,4.90
